Time;durP1;ratioP1;P1;durP2;ratioP2;P2;SDS_P1;SDS_P2;PMS_P1;PMS_P2;Temp;Humidity;BMP_temperature;BMP_pressure;BME280_temperature;BME280_humidity;BME280_pressure;Samples;Min_cycle;Max_cycle;Signal;HPM_P1;HPM_P2
2022/06/03 00:01:33;;;;;;;7.43;4.68;;;13.10;99.90;;;;;;4996867;28;20054;-73
2022/06/03 00:04:18;;;;;;;8.63;4.28;;;13.00;99.90;;;;;;4996858;28;20054;-73
2022/06/03 00:07:02;;;;;;;5.20;3.90;;;13.00;99.90;;;;;;5014058;28;20139;-73
2022/06/03 00:10:00;;;;;;;7.43;4.05;;;13.00;99.90;;;;;;5014074;28;20065;-73
2022/06/03 00:12:26;;;;;;;6.05;3.97;;;13.00;99.90;;;;;;5014006;28;20053;-73
2022/06/03 00:15:26;;;;;;;8.05;4.13;;;12.90;99.90;;;;;;5013943;28;20054;-73
2022/06/03 00:18:06;;;;;;;6.60;3.97;;;12.90;99.90;;;;;;5013915;28;20426;-74
2022/06/03 00:21:00;;;;;;;11.18;4.32;;;12.90;99.90;;;;;;4996448;28;20054;-73
2022/06/03 00:23:43;;;;;;;14.27;3.97;;;12.90;99.90;;;;;;4996403;28;20045;-79
2022/06/03 00:26:36;;;;;;;5.65;3.80;;;12.90;99.90;;;;;;4996351;28;20057;-74
2022/06/03 00:29:47;;;;;;;6.93;4.20;;;12.80;99.90;;;;;;4995951;28;20057;-73
2022/06/03 00:32:16;;;;;;;7.40;4.20;;;12.80;99.90;;;;;;4966823;28;20155;-73
2022/06/03 00:34:52;;;;;;;8.63;4.00;;;12.70;99.90;;;;;;4980128;28;20449;-74
2022/06/03 00:37:41;;;;;;;11.90;4.90;;;12.80;99.90;;;;;;4996424;28;20053;-73
2022/06/03 00:40:26;;;;;;;7.20;4.38;;;12.80;99.90;;;;;;4980217;28;20050;-74
2022/06/03 00:43:17;;;;;;;7.47;4.47;;;12.70;99.90;;;;;;4996546;28;20104;-73
2022/06/03 00:46:01;;;;;;;7.03;4.40;;;12.70;99.90;;;;;;4996430;28;20054;-73
2022/06/03 00:48:48;;;;;;;5.20;4.25;;;12.70;99.90;;;;;;5013641;28;20073;-73
2022/06/03 00:51:32;;;;;;;6.32;4.30;;;12.60;99.90;;;;;;4996577;28;20053;-73
2022/06/03 00:54:16;;;;;;;7.50;4.38;;;12.60;99.90;;;;;;4996251;28;20140;-73
2022/06/03 00:57:20;;;;;;;5.93;3.90;;;12.50;99.90;;;;;;4995916;28;20050;-73
2022/06/03 01:00:00;;;;;;;6.72;4.72;;;12.50;99.90;;;;;;4917620;29;20059;-73
2022/06/03 01:02:38;;;;;;;9.07;4.57;;;12.50;99.90;;;;;;4933866;29;20056;-73
2022/06/03 01:05:31;;;;;;;7.57;4.45;;;12.50;99.90;;;;;;4965182;28;20058;-73
2022/06/03 01:08:14;;;;;;;7.63;4.72;;;12.50;99.90;;;;;;4992988;28;20061;-73
2022/06/03 01:10:50;;;;;;;7.38;4.70;;;12.60;99.90;;;;;;4992917;28;20054;-73
2022/06/03 01:13:19;;;;;;;9.98;4.65;;;12.60;99.90;;;;;;4992908;28;20046;-73
2022/06/03 01:16:16;;;;;;;6.97;4.68;;;12.60;99.90;;;;;;4992904;28;20046;-73
2022/06/03 01:19:10;;;;;;;8.43;5.00;;;12.60;99.90;;;;;;4993789;28;20050;-73
2022/06/03 01:21:46;;;;;;;8.02;4.95;;;12.50;99.90;;;;;;4992748;28;20054;-73
2022/06/03 01:24:43;;;;;;;7.20;4.82;;;12.50;99.90;;;;;;4992962;28;20054;-73
2022/06/03 01:27:24;;;;;;;;;;;12.50;99.90;;;;;;4977007;28;20127;-73
2022/06/03 01:29:49;;;;;;;9.27;5.47;;;12.40;99.90;;;;;;4993646;28;19922;-73
2022/06/03 01:32:40;;;;;;;10.60;5.20;;;12.40;99.90;;;;;;4992721;28;20475;-73
2022/06/03 01:35:11;;;;;;;8.45;4.97;;;12.50;99.90;;;;;;4992668;28;20054;-74
2022/06/03 01:38:01;;;;;;;7.28;4.80;;;12.50;99.90;;;;;;4993514;28;20109;-73
2022/06/03 01:41:01;;;;;;;7.13;4.63;;;12.60;99.90;;;;;;4994923;28;20050;-74
2022/06/03 01:43:27;;;;;;;12.45;5.90;;;12.60;99.90;;;;;;4997099;28;20053;-73
2022/06/03 01:46:10;;;;;;;9.65;5.47;;;12.70;99.90;;;;;;4997414;28;20050;-73
2022/06/03 01:48:56;;;;;;;7.25;4.72;;;12.70;99.90;;;;;;4996310;28;20086;-73
2022/06/03 01:51:47;;;;;;;8.35;4.88;;;12.70;99.90;;;;;;4996026;28;20057;-74
2022/06/03 01:54:33;;;;;;;7.80;4.95;;;12.60;99.90;;;;;;4979737;28;20105;-73
2022/06/03 01:57:43;;;;;;;7.93;4.75;;;12.60;99.90;;;;;;4979418;28;20124;-73
2022/06/03 02:00:34;;;;;;;9.30;5.40;;;12.50;99.90;;;;;;4995371;28;20109;-73
2022/06/03 02:03:09;;;;;;;13.88;5.50;;;12.50;99.90;;;;;;4995767;28;20054;-73
2022/06/03 02:06:00;;;;;;;9.38;4.80;;;12.40;99.90;;;;;;4995778;28;20141;-73
2022/06/03 02:08:34;;;;;;;9.55;5.50;;;12.50;99.90;;;;;;4995693;28;20117;-72
2022/06/03 02:11:15;;;;;;;7.38;5.50;;;12.40;99.90;;;;;;4996543;28;20050;-73
2022/06/03 02:14:08;;;;;;;10.85;5.45;;;12.40;99.90;;;;;;4995317;28;20483;-73
2022/06/03 02:16:49;;;;;;;6.78;4.70;;;12.30;99.90;;;;;;4996516;28;20073;-73
2022/06/03 02:19:17;;;;;;;8.35;4.82;;;12.40;99.90;;;;;;4995819;28;20065;-73
2022/06/03 02:22:08;;;;;;;7.45;4.88;;;12.30;99.90;;;;;;4995436;28;20101;-73
2022/06/03 02:24:42;;;;;;;10.18;5.70;;;12.30;99.90;;;;;;4995399;28;20050;-74
2022/06/03 02:27:36;;;;;;;8.93;4.97;;;12.30;99.90;;;;;;4995289;28;20080;-73
2022/06/03 02:30:39;;;;;;;10.38;5.68;;;12.30;99.90;;;;;;4996196;28;20142;-73
2022/06/03 02:33:27;;;;;;;9.77;6.20;;;12.20;99.90;;;;;;4995314;28;20138;-73
2022/06/03 02:36:11;;;;;;;8.25;5.35;;;12.30;99.90;;;;;;4996284;28;20046;-73
2022/06/03 02:39:21;;;;;;;11.38;5.97;;;12.30;99.90;;;;;;4996122;28;20046;-73
2022/06/03 02:42:10;;;;;;;10.77;6.03;;;12.20;99.90;;;;;;4995090;28;20050;-74
2022/06/03 02:44:42;;;;;;;7.88;5.28;;;12.20;99.90;;;;;;4995260;28;20058;-73
2022/06/03 02:47:14;;;;;;;9.00;5.70;;;12.10;99.90;;;;;;4994993;28;20058;-73
2022/06/03 02:49:43;;;;;;;13.07;6.20;;;12.20;99.90;;;;;;4994824;28;20109;-73
2022/06/03 02:52:52;;;;;;;10.23;6.05;;;12.20;99.90;;;;;;4994342;28;20137;-72
2022/06/03 02:55:28;;;;;;;11.30;6.10;;;12.20;99.90;;;;;;4935236;29;20065;-80
2022/06/03 02:58:05;;;;;;;8.23;5.85;;;12.20;99.90;;;;;;4919626;29;20457;-73
2022/06/03 03:01:00;;;;;;;10.25;5.97;;;12.20;99.90;;;;;;4967401;28;20054;-74
2022/06/03 03:03:41;;;;;;;9.25;6.18;;;12.20;99.90;;;;;;4993472;28;20061;-73
2022/06/03 03:06:22;;;;;;;10.95;6.18;;;12.10;99.90;;;;;;4994333;28;20054;-73
2022/06/03 03:09:02;;;;;;;9.68;6.50;;;12.10;99.90;;;;;;4994611;28;20054;-72
2022/06/03 03:11:42;;;;;;;10.57;6.05;;;12.00;99.90;;;;;;4994475;28;20054;-72
2022/06/03 03:14:26;;;;;;;8.70;6.00;;;12.00;99.90;;;;;;4995519;28;20057;-73
2022/06/03 03:17:35;;;;;;;10.68;6.90;;;12.00;99.90;;;;;;4993985;28;20395;-73
2022/06/03 03:20:25;;;;;;;11.98;6.13;;;12.00;99.90;;;;;;4994409;28;20394;-73
2022/06/03 03:23:05;;;;;;;11.15;6.72;;;11.90;99.90;;;;;;4994078;28;20073;-73
2022/06/03 03:25:50;;;;;;;12.02;6.78;;;12.00;99.90;;;;;;4977791;28;20145;-73
2022/06/03 03:28:18;;;;;;;9.60;6.05;;;12.00;99.90;;;;;;4995278;28;20046;-73
2022/06/03 03:30:50;;;;;;;11.23;6.18;;;11.90;99.90;;;;;;4994121;28;20137;-73
2022/06/03 03:33:44;;;;;;;8.90;5.68;;;11.90;99.90;;;;;;4977907;28;20058;-73
2022/06/03 03:36:31;;;;;;;9.02;6.32;;;11.90;99.90;;;;;;4994167;28;20395;-74
2022/06/03 03:39:34;;;;;;;8.52;6.00;;;11.90;99.90;;;;;;4993705;28;20058;-73
2022/06/03 03:42:24;;;;;;;9.45;5.95;;;12.00;99.90;;;;;;4994864;28;20093;-73
2022/06/03 03:45:23;;;;;;;10.25;5.93;;;11.90;99.90;;;;;;4993976;28;20053;-72
2022/06/03 03:48:20;;;;;;;11.10;6.32;;;12.00;99.90;;;;;;4993922;28;20050;-75
2022/06/03 03:51:10;;;;;;;9.20;5.93;;;12.00;99.90;;;;;;4994944;28;20058;-72
2022/06/03 03:53:53;;;;;;;9.50;6.43;;;12.10;99.90;;;;;;4994827;28;20054;-72
2022/06/03 03:56:43;;;;;;;9.63;5.90;;;12.10;99.90;;;;;;4993431;28;20375;-73
2022/06/03 03:59:18;;;;;;;8.32;5.63;;;12.10;99.90;;;;;;5003097;28;20097;-72
2022/06/03 04:02:14;;;;;;;9.50;6.20;;;12.20;99.90;;;;;;4996807;28;20483;-72
2022/06/03 04:05:02;;;;;;;9.02;5.35;;;12.30;99.90;;;;;;4996084;28;20089;-73
2022/06/03 04:07:52;;;;;;;10.40;6.35;;;12.50;99.90;;;;;;4996878;28;20146;-72
2022/06/03 04:10:29;;;;;;;10.95;6.70;;;12.50;99.90;;;;;;4980569;28;20157;-73
2022/06/03 04:13:33;;;;;;;9.55;6.28;;;12.70;99.90;;;;;;4996748;28;20054;-73
2022/06/03 04:16:36;;;;;;;13.30;6.57;;;12.70;99.90;;;;;;4996615;28;20112;-73
2022/06/03 04:19:23;;;;;;;9.70;6.22;;;12.80;99.90;;;;;;4996594;28;20483;-74
2022/06/03 04:21:58;;;;;;;9.63;6.07;;;12.90;99.90;;;;;;4996483;28;20061;-74
2022/06/03 04:24:48;;;;;;;11.65;5.55;;;12.90;99.90;;;;;;4996457;28;20053;-73
2022/06/03 04:27:54;;;;;;;9.25;5.55;;;12.80;99.90;;;;;;4996248;28;20100;-73
2022/06/03 04:30:57;;;;;;;8.40;5.68;;;12.80;99.90;;;;;;4996493;28;20115;-73
2022/06/03 04:33:35;;;;;;;7.90;5.40;;;12.90;99.90;;;;;;4996406;28;20119;-73
2022/06/03 04:36:15;;;;;;;8.75;6.03;;;13.10;99.90;;;;;;4996724;28;20088;-72
2022/06/03 04:39:00;;;;;;;10.85;5.95;;;13.00;99.90;;;;;;4979896;28;20046;-73
2022/06/03 04:42:04;;;;;;;9.27;6.03;;;13.10;99.90;;;;;;4996399;28;20454;-73
2022/06/03 04:45:04;;;;;;;12.23;6.68;;;13.10;99.90;;;;;;4966706;28;20096;-73
2022/06/03 04:47:51;;;;;;;10.90;6.82;;;13.10;99.90;;;;;;4996371;28;20057;-73
2022/06/03 04:50:54;;;;;;;11.30;6.35;;;13.10;99.90;;;;;;4996348;28;20565;-73
2022/06/03 04:53:57;;;;;;;11.93;6.90;;;13.20;99.90;;;;;;4996296;28;20097;-73
2022/06/03 04:57:12;;;;;;;13.23;7.10;;;13.40;99.90;;;;;;4995777;28;20065;-72
2022/06/03 05:00:05;;;;;;;11.98;6.65;;;13.50;99.90;;;;;;5013501;28;20415;-72
2022/06/03 05:02:52;;;;;;;14.40;7.28;;;13.60;99.90;;;;;;4996162;28;20493;-72
2022/06/03 05:05:18;;;;;;;12.70;6.93;;;13.60;99.90;;;;;;4996165;28;20474;-73
2022/06/03 05:08:05;;;;;;;10.25;5.60;;;13.80;99.90;;;;;;5013466;28;20128;-72
2022/06/03 05:10:40;;;;;;;11.68;5.93;;;13.80;99.90;;;;;;4996198;28;20164;-73
2022/06/03 05:13:36;;;;;;;8.23;5.68;;;13.90;99.90;;;;;;4996127;28;20057;-73
2022/06/03 05:16:35;;;;;;;9.82;5.53;;;14.10;99.90;;;;;;4999486;28;20049;-73
2022/06/03 05:19:01;;;;;;;7.43;5.00;;;14.10;99.90;;;;;;4999960;28;20049;-73
2022/06/03 05:22:02;;;;;;;8.10;5.55;;;14.10;99.90;;;;;;4999906;28;20046;-73
2022/06/03 05:24:57;;;;;;;8.38;4.93;;;14.40;99.90;;;;;;5000063;28;20054;-75
2022/06/03 05:27:29;;;;;;;7.50;4.72;;;14.50;99.90;;;;;;5016824;28;20046;-73
2022/06/03 05:30:13;;;;;;;9.15;5.00;;;14.60;99.90;;;;;;4999495;28;20046;-73
2022/06/03 05:33:27;;;;;;;11.93;5.28;;;14.70;99.90;;;;;;5016991;28;20056;-73
2022/06/03 05:35:55;;;;;;;14.00;4.28;;;14.80;99.90;;;;;;4921361;29;20552;-73
2022/06/03 05:38:32;;;;;;;13.82;5.53;;;14.80;99.90;;;;;;4920888;29;20047;-73
2022/06/03 05:44:41;;;;;;;12.20;5.55;;;14.90;99.90;;;;;;4999403;28;20061;-73
2022/06/03 05:47:24;;;;;;;9.80;5.18;;;15.00;99.90;;;;;;5016785;28;20042;-73
2022/06/03 05:50:30;;;;;;;9.52;4.82;;;14.90;99.90;;;;;;4999371;28;20061;-73
2022/06/03 05:53:46;;;;;;;11.07;4.88;;;15.10;99.90;;;;;;4999300;28;20054;-73
2022/06/03 05:56:56;;;;;;;8.52;4.50;;;15.20;99.90;;;;;;4965945;28;20057;-73
2022/06/03 05:59:47;;;;;;;7.32;4.38;;;15.30;99.90;;;;;;4998938;28;20060;-73
2022/06/03 06:02:35;;;;;;;10.65;5.63;;;15.50;99.90;;;;;;4999130;28;20049;-73
2022/06/03 06:05:31;;;;;;;7.63;4.85;;;15.70;99.90;;;;;;5015157;28;20050;-73
2022/06/03 06:08:25;;;;;;;15.05;5.88;;;15.80;99.90;;;;;;5016301;28;20045;-73
2022/06/03 06:11:17;;;;;;;9.13;4.72;;;15.70;99.90;;;;;;5016339;28;20050;-73
2022/06/03 06:14:04;;;;;;;8.73;4.72;;;15.80;99.90;;;;;;5014705;28;20509;-73
2022/06/03 06:16:40;;;;;;;7.45;4.28;;;15.90;99.90;;;;;;5015958;28;20042;-74
2022/06/03 06:19:36;;;;;;;9.90;4.10;;;16.00;99.90;;;;;;5016183;28;20053;-73
2022/06/03 06:22:29;;;;;;;4.80;3.60;;;16.00;99.90;;;;;;4998954;28;20041;-73
2022/06/03 06:25:11;;;;;;;7.72;3.63;;;16.00;99.90;;;;;;4994874;28;20072;-73
2022/06/03 06:28:02;;;;;;;4.82;3.25;;;16.20;99.90;;;;;;4997607;28;20093;-73
2022/06/03 06:30:39;;;;;;;5.35;2.95;;;16.30;99.90;;;;;;5015894;28;20052;-73
2022/06/03 06:33:39;;;;;;;5.43;2.70;;;16.20;99.90;;;;;;4998309;28;20124;-73
2022/06/03 06:36:27;;;;;;;6.15;2.65;;;16.30;99.90;;;;;;4998630;28;20049;-73
2022/06/03 06:39:14;;;;;;;7.97;2.30;;;16.10;99.90;;;;;;5015721;28;20050;-73
2022/06/03 06:42:01;;;;;;;;;;;16.20;99.90;;;;;;4998850;28;20493;-73
2022/06/03 06:44:46;;;;;;;5.25;3.20;;;16.40;99.90;;;;;;5015802;28;19925;-73
2022/06/03 06:47:35;;;;;;;7.00;3.03;;;16.50;99.90;;;;;;4998339;28;20491;-73
2022/06/03 06:50:16;;;;;;;5.03;2.40;;;16.70;99.90;;;;;;5015407;28;20085;-73
2022/06/03 06:53:03;;;;;;;8.57;1.92;;;16.80;99.90;;;;;;4998166;28;20050;-73
2022/06/03 06:55:51;;;;;;;3.85;1.70;;;16.50;99.90;;;;;;5015445;28;20061;-72
2022/06/03 06:58:42;;;;;;;3.38;1.70;;;16.70;99.90;;;;;;5015056;28;20068;-73
2022/06/03 07:01:10;;;;;;;3.78;1.80;;;16.90;99.90;;;;;;5015286;28;20060;-73
2022/06/03 07:03:49;;;;;;;5.35;1.50;;;16.90;99.90;;;;;;5015170;28;20390;-73
2022/06/03 07:06:26;;;;;;;4.82;1.60;;;16.80;99.90;;;;;;4997963;28;20180;-73
2022/06/03 07:09:15;;;;;;;3.90;1.83;;;17.00;99.90;;;;;;4997612;28;20053;-73
2022/06/03 07:11:44;;;;;;;2.58;1.40;;;17.20;99.90;;;;;;5015108;28;20073;-70
2022/06/03 07:14:28;;;;;;;4.13;1.40;;;17.40;99.90;;;;;;5015004;28;20053;-70
2022/06/03 07:20:27;;;;;;;3.30;1.50;;;17.20;99.90;;;;;;5014924;28;20092;-71
2022/06/03 07:23:04;;;;;;;3.03;1.50;;;17.30;99.90;;;;;;5014981;28;20072;-71
2022/06/03 07:25:43;;;;;;;4.50;1.40;;;17.50;99.90;;;;;;5014956;28;20490;-71
2022/06/03 07:28:16;;;;;;;3.08;1.40;;;17.60;99.90;;;;;;5014862;28;20406;-70
2022/06/03 07:30:53;;;;;;;4.13;1.40;;;17.70;99.90;;;;;;5017376;28;20054;-72
2022/06/03 07:33:21;;;;;;;;;;;17.80;99.90;;;;;;5016285;28;20053;-72
2022/06/03 07:36:06;;;;;;;5.32;1.38;;;17.80;99.90;;;;;;5014559;28;20007;-73
2022/06/03 07:38:46;;;;;;;5.13;1.30;;;18.00;99.90;;;;;;4983139;28;20057;-73
2022/06/03 07:41:16;;;;;;;3.90;1.50;;;18.00;99.90;;;;;;5014567;28;20045;-73
2022/06/03 07:43:52;;;;;;;3.25;1.42;;;17.90;99.90;;;;;;4997222;28;20050;-73
2022/06/03 07:46:30;;;;;;;4.43;1.95;;;18.00;99.30;;;;;;5014864;28;20061;-74
2022/06/03 07:48:56;;;;;;;2.75;1.27;;;17.80;99.90;;;;;;5014575;28;20095;-73
2022/06/03 07:51:36;;;;;;;2.53;0.98;;;18.00;99.90;;;;;;5014348;28;20049;-74
2022/06/03 07:54:26;;;;;;;2.13;1.40;;;18.10;99.90;;;;;;4997086;28;20133;-73
2022/06/03 07:57:03;;;;;;;2.30;1.30;;;18.30;99.90;;;;;;5013881;28;20438;-74
2022/06/03 07:59:32;;;;;;;4.15;1.40;;;18.60;99.90;;;;;;4996640;28;20066;-72
2022/06/03 08:02:03;;;;;;;3.35;1.20;;;18.70;99.90;;;;;;5014180;28;20046;-73
2022/06/03 08:04:31;;;;;;;6.18;1.80;;;18.90;99.90;;;;;;5014141;28;20046;-73
2022/06/03 08:12:34;;;;;;;3.05;1.50;;;19.00;99.50;;;;;;5014178;28;20089;-74
2022/06/03 08:15:20;;;;;;;2.15;1.23;;;19.00;99.20;;;;;;5014079;28;20050;-74
2022/06/03 08:17:48;;;;;;;3.38;1.30;;;19.20;99.20;;;;;;5014133;28;20042;-74
2022/06/03 08:20:17;;;;;;;2.33;1.38;;;19.30;99.10;;;;;;4996580;28;20045;-74
2022/06/03 08:22:45;;;;;;;3.15;1.08;;;19.20;99.60;;;;;;5013962;28;20061;-73
2022/06/03 08:25:16;;;;;;;4.03;1.17;;;19.00;98.90;;;;;;4996401;28;20061;-73
2022/06/03 08:27:43;;;;;;;1.63;1.02;;;19.20;99.00;;;;;;5013643;28;20037;-73
2022/06/03 08:30:13;;;;;;;2.17;1.00;;;19.50;99.10;;;;;;5013754;28;20050;-73
2022/06/03 08:32:46;;;;;;;4.18;1.50;;;19.70;99.40;;;;;;5013863;28;20112;-73
2022/06/03 08:35:23;;;;;;;4.75;1.30;;;19.70;98.90;;;;;;5013777;28;20096;-73
2022/06/03 08:38:01;;;;;;;2.63;1.40;;;19.80;99.20;;;;;;5013794;28;20132;-73
2022/06/03 08:40:35;;;;;;;2.83;1.25;;;19.80;98.60;;;;;;5013695;28;20048;-75
2022/06/03 08:43:12;;;;;;;2.55;1.40;;;19.50;98.60;;;;;;5013857;28;20085;-74
2022/06/03 08:45:44;;;;;;;4.90;1.30;;;19.50;99.30;;;;;;5013758;28;20085;-73
2022/06/03 08:48:15;;;;;;;7.57;1.42;;;19.50;99.60;;;;;;5013669;28;20050;-73
2022/06/03 08:50:47;;;;;;;2.33;1.38;;;19.50;98.80;;;;;;5016534;28;20085;-72
2022/06/03 08:53:23;;;;;;;5.28;1.40;;;19.70;99.20;;;;;;5017646;28;20133;-70
2022/06/03 08:55:54;;;;;;;3.28;1.50;;;20.00;99.60;;;;;;5017428;28;20050;-74
2022/06/03 08:58:39;;;;;;;2.72;1.48;;;20.20;99.30;;;;;;4999911;28;20471;-70
2022/06/03 09:01:19;;;;;;;5.20;1.45;;;20.30;99.30;;;;;;5017582;28;20475;-70
2022/06/03 09:04:03;;;;;;;6.32;1.60;;;20.30;98.70;;;;;;5000228;28;20061;-71
2022/06/03 09:06:44;;;;;;;2.95;1.45;;;20.60;98.80;;;;;;5017695;28;20089;-71
2022/06/03 09:09:24;;;;;;;6.00;1.73;;;20.40;99.00;;;;;;5017406;28;20129;-71
2022/06/03 09:12:22;;;;;;;4.38;1.83;;;20.60;99.00;;;;;;5017220;28;20049;-71
2022/06/03 09:14:50;;;;;;;2.78;1.45;;;20.30;99.10;;;;;;5017301;28;20089;-72
2022/06/03 09:17:35;;;;;;;4.65;1.48;;;20.60;99.30;;;;;;5017269;28;20046;-71
2022/06/03 09:20:12;;;;;;;4.18;1.40;;;20.80;98.80;;;;;;5016170;28;20131;-71
2022/06/03 09:22:38;;;;;;;3.47;1.75;;;20.60;99.40;;;;;;5017210;28;20497;-71
2022/06/03 09:25:06;;;;;;;4.05;1.77;;;20.60;99.00;;;;;;5017061;28;20093;-71
2022/06/03 09:27:34;;;;;;;3.88;1.48;;;20.80;98.80;;;;;;4999306;28;20049;-71
2022/06/03 09:30:05;;;;;;;3.38;1.50;;;21.00;99.10;;;;;;5016927;28;20050;-72
2022/06/03 09:32:37;;;;;;;3.30;1.60;;;21.20;99.00;;;;;;5016719;28;20383;-72
2022/06/03 09:35:08;;;;;;;3.55;1.70;;;21.30;98.70;;;;;;5016938;28;20061;-71
2022/06/03 09:37:41;;;;;;;3.25;1.10;;;21.40;98.80;;;;;;4999456;28;20056;-72
2022/06/03 09:40:12;;;;;;;4.22;1.38;;;21.70;99.00;;;;;;5016830;28;20042;-71
2022/06/03 09:42:46;;;;;;;2.35;1.50;;;21.90;98.70;;;;;;5016869;28;20054;-71
2022/06/03 09:45:16;;;;;;;4.22;1.45;;;22.00;98.90;;;;;;5016659;28;20475;-78
2022/06/03 09:47:43;;;;;;;3.03;1.80;;;21.90;98.90;;;;;;4999440;28;20116;-71
2022/06/03 09:50:14;;;;;;;4.15;1.38;;;22.00;99.10;;;;;;5016590;28;20056;-72
2022/06/03 09:52:40;;;;;;;3.08;1.48;;;21.90;99.00;;;;;;5016713;28;20133;-71
2022/06/03 09:55:21;;;;;;;1.85;1.30;;;21.80;98.90;;;;;;5016482;28;20124;-72
2022/06/03 09:57:46;;;;;;;5.13;1.77;;;21.80;98.80;;;;;;5016166;28;20129;-71
2022/06/03 10:00:21;;;;;;;3.60;1.52;;;22.10;98.70;;;;;;5016283;28;20137;-74
2022/06/03 10:02:47;;;;;;;2.67;1.63;;;22.20;99.20;;;;;;5015820;28;20054;-72
2022/06/03 10:05:16;;;;;;;2.97;1.25;;;22.30;98.40;;;;;;5016222;28;20401;-72
2022/06/03 10:07:46;;;;;;;4.35;1.92;;;22.40;99.00;;;;;;4998969;28;20081;-68
2022/06/03 10:13:05;;;;;;;3.78;2.00;;;22.20;99.00;;;;;;5016318;28;20060;-69
2022/06/03 10:15:43;;;;;;;4.35;1.35;;;22.20;99.00;;;;;;4998925;28;20076;-68
2022/06/03 10:18:28;;;;;;;3.40;1.58;;;22.30;99.30;;;;;;5016117;28;20125;-69
2022/06/03 10:21:18;;;;;;;4.13;1.70;;;22.50;98.50;;;;;;5016096;28;20050;-69
2022/06/03 10:24:00;;;;;;;3.00;1.85;;;22.80;98.40;;;;;;5001548;28;20060;-68
2022/06/03 10:26:37;;;;;;;2.72;1.40;;;22.60;98.40;;;;;;5015604;28;20049;-69
2022/06/03 10:29:09;;;;;;;2.75;1.73;;;22.80;98.60;;;;;;5016061;28;20060;-69
2022/06/03 10:31:36;;;;;;;3.10;1.40;;;23.10;98.10;;;;;;5015824;28;20404;-69
2022/06/03 10:34:11;;;;;;;2.78;1.38;;;23.00;98.40;;;;;;5015839;28;20052;-69
2022/06/03 10:36:40;;;;;;;2.10;1.40;;;23.20;98.30;;;;;;5015715;28;20045;-69
2022/06/03 10:39:09;;;;;;;4.32;1.40;;;23.40;98.40;;;;;;5015782;28;20050;-69
2022/06/03 10:41:47;;;;;;;3.78;1.30;;;23.70;97.90;;;;;;5015596;28;20465;-69
2022/06/03 10:44:22;;;;;;;4.28;1.60;;;23.80;98.30;;;;;;5015675;28;20046;-69
2022/06/03 10:46:51;;;;;;;2.35;1.25;;;24.10;98.20;;;;;;5015665;28;20144;-69
2022/06/03 10:49:17;;;;;;;3.15;1.75;;;23.90;98.20;;;;;;5015547;28;20046;-71
2022/06/03 11:02:50;;;;;;;2.90;1.40;;;23.40;97.80;;;;;;4998244;28;20096;-84
2022/06/03 11:05:26;;;;;;;2.75;1.10;;;22.40;97.90;;;;;;4981754;28;20485;-68
2022/06/03 11:07:59;;;;;;;;;;;22.00;98.80;;;;;;5015683;28;20049;-68
2022/06/03 11:10:30;;;;;;;4.18;1.13;;;22.40;98.80;;;;;;5015067;28;19979;-67
2022/06/03 11:13:02;;;;;;;5.03;1.50;;;23.20;98.30;;;;;;5014641;28;20104;-68
2022/06/03 11:15:37;;;;;;;4.75;1.35;;;23.70;97.80;;;;;;5014755;28;20556;-67
2022/06/03 11:18:14;;;;;;;2.80;1.67;;;23.80;98.00;;;;;;5014892;28;20092;-68
2022/06/03 11:20:41;;;;;;;2.92;1.30;;;24.10;97.20;;;;;;5014859;28;20052;-69
2022/06/03 11:23:10;;;;;;;2.00;1.55;;;24.10;97.10;;;;;;5014844;28;20057;-74
2022/06/03 11:26:00;;;;;;;2.20;1.10;;;23.80;98.00;;;;;;5014830;28;20054;-67
2022/06/03 11:28:33;;;;;;;3.58;1.30;;;24.00;97.50;;;;;;5014544;28;20041;-67
2022/06/03 11:31:05;;;;;;;2.97;1.10;;;24.20;97.40;;;;;;5014754;28;20113;-67
2022/06/03 11:33:52;;;;;;;1.70;1.10;;;24.60;97.40;;;;;;5014682;28;20128;-67
2022/06/03 11:36:24;;;;;;;4.28;1.17;;;24.60;97.20;;;;;;5014692;28;20045;-67
2022/06/03 11:38:59;;;;;;;3.08;1.20;;;24.80;97.40;;;;;;5014543;28;20042;-67
2022/06/03 11:41:32;;;;;;;1.48;1.20;;;24.70;96.80;;;;;;5014369;28;20402;-67
2022/06/03 11:44:39;;;;;;;5.72;1.67;;;24.80;97.30;;;;;;5014609;28;20042;-67
2022/06/03 11:47:30;;;;;;;1.98;1.13;;;24.80;97.30;;;;;;4970574;28;20552;-67
2022/06/03 11:49:55;;;;;;;3.55;1.15;;;24.80;96.90;;;;;;5014430;28;20053;-67
2022/06/03 11:52:21;;;;;;;1.98;1.05;;;25.00;97.40;;;;;;5014400;28;20052;-67
2022/06/03 11:54:48;;;;;;;1.88;1.20;;;25.20;97.20;;;;;;5014390;28;20067;-71
2022/06/03 11:57:15;;;;;;;5.45;1.17;;;25.30;97.40;;;;;;5014057;28;20046;-67
2022/06/03 12:00:04;;;;;;;5.93;1.40;;;25.30;97.30;;;;;;5014383;28;20057;-79
2022/06/03 12:02:38;;;;;;;4.88;1.30;;;24.50;96.70;;;;;;4996967;28;20052;-82
2022/06/03 12:05:09;;;;;;;4.13;1.25;;;23.90;96.90;;;;;;4996861;28;20077;-80
2022/06/03 12:07:41;;;;;;;2.97;1.10;;;23.70;96.90;;;;;;5013454;28;20108;-67
2022/06/03 12:10:40;;;;;;;3.88;1.15;;;23.80;97.80;;;;;;5014127;28;20056;-69
2022/06/03 12:13:26;;;;;;;2.85;1.20;;;24.00;96.90;;;;;;5014379;28;20111;-68
2022/06/03 12:15:58;;;;;;;4.60;1.10;;;24.30;97.50;;;;;;5014088;28;20089;-70
2022/06/03 12:18:34;;;;;;;3.25;1.00;;;24.40;96.50;;;;;;5013994;28;20096;-70
2022/06/03 12:21:14;;;;;;;3.95;1.20;;;24.20;96.20;;;;;;5013977;28;20132;-70
2022/06/03 12:23:41;;;;;;;6.85;1.90;;;23.70;96.70;;;;;;5013529;28;20172;-71
2022/06/03 12:26:10;;;;;;;4.63;1.42;;;23.60;96.90;;;;;;5013358;28;20073;-71
2022/06/03 12:28:47;;;;;;;3.95;1.30;;;23.70;97.00;;;;;;5013854;28;20046;-72
2022/06/03 12:31:22;;;;;;;2.15;1.30;;;24.00;96.70;;;;;;4996537;28;20056;-71
2022/06/03 12:34:13;;;;;;;2.75;1.35;;;24.00;96.60;;;;;;5013802;28;20153;-71
2022/06/03 12:36:50;;;;;;;2.13;1.10;;;23.90;96.90;;;;;;5013757;28;20046;-73
2022/06/03 12:39:31;;;;;;;2.75;1.15;;;24.20;96.90;;;;;;4996571;28;20053;-74
2022/06/03 12:42:00;;;;;;;3.60;1.17;;;24.40;96.80;;;;;;4996467;28;20053;-83
2022/06/03 12:44:43;;;;;;;3.55;1.10;;;24.30;96.60;;;;;;4995582;28;20057;-80
2022/06/03 12:47:18;;;;;;;5.10;1.38;;;24.10;97.20;;;;;;4980175;28;20061;-81
2022/06/03 12:49:43;;;;;;;2.95;1.30;;;23.70;96.70;;;;;;4996314;28;20133;-80
2022/06/03 12:52:29;;;;;;;1.30;0.85;;;24.10;96.90;;;;;;4979880;28;20089;-82
2022/06/03 12:55:14;;;;;;;2.45;1.10;;;24.20;96.70;;;;;;4980932;28;20057;-83
2022/06/03 12:57:46;;;;;;;1.55;0.95;;;24.00;96.00;;;;;;4979169;28;20064;-80
2022/06/03 13:00:18;;;;;;;3.70;0.95;;;24.00;96.00;;;;;;4979825;28;20104;-79
2022/06/03 13:03:19;;;;;;;3.88;1.05;;;24.10;96.10;;;;;;4996415;28;20081;-72
2022/06/03 13:05:59;;;;;;;2.30;1.02;;;24.10;96.30;;;;;;4933598;29;20043;-70
2022/06/03 13:08:27;;;;;;;1.73;1.00;;;24.60;95.90;;;;;;4987458;28;20387;-69
2022/06/03 13:11:30;;;;;;;2.00;0.70;;;25.20;95.80;;;;;;5013174;28;20056;-69
2022/06/03 13:13:56;;;;;;;2.42;0.80;;;25.70;96.30;;;;;;5013309;28;20557;-69
2022/06/03 13:16:36;;;;;;;2.92;0.93;;;26.00;96.30;;;;;;5013340;28;20049;-69
2022/06/03 13:19:17;;;;;;;2.50;1.10;;;26.30;96.60;;;;;;5012954;28;20463;-69
2022/06/03 13:21:58;;;;;;;2.40;1.00;;;26.40;96.70;;;;;;5013210;28;20076;-69
2022/06/03 13:24:39;;;;;;;5.57;1.20;;;26.50;96.80;;;;;;4995936;28;20128;-69
2022/06/03 13:27:19;;;;;;;2.38;1.00;;;26.60;96.70;;;;;;5011660;28;20042;-69
2022/06/03 13:29:56;;;;;;;2.58;0.90;;;26.20;96.50;;;;;;5013289;28;20045;-69
2022/06/03 13:32:22;;;;;;;7.15;1.30;;;25.80;96.70;;;;;;5013236;28;20054;-70
2022/06/03 13:35:03;;;;;;;1.05;0.52;;;26.10;96.70;;;;;;5013056;28;20107;-74
2022/06/03 13:37:45;;;;;;;2.70;0.98;;;26.50;97.00;;;;;;4999357;28;20185;-69
2022/06/03 13:40:19;;;;;;;3.97;1.08;;;26.60;96.70;;;;;;4999217;28;20049;-70
2022/06/03 13:43:15;;;;;;;3.22;0.60;;;26.50;96.80;;;;;;4998977;28;20108;-69
2022/06/03 13:45:53;;;;;;;1.65;0.80;;;26.70;96.90;;;;;;5016772;28;20128;-69
2022/06/03 13:48:45;;;;;;;2.92;0.82;;;26.50;96.50;;;;;;5016704;28;20061;-69
2022/06/03 13:51:29;;;;;;;3.17;0.70;;;26.80;96.70;;;;;;4999284;28;20402;-69
2022/06/03 13:54:01;;;;;;;1.77;0.63;;;26.50;96.60;;;;;;4999252;28;20053;-72
2022/06/03 13:56:29;;;;;;;5.47;0.80;;;26.20;96.50;;;;;;4998468;28;20054;-70
2022/06/03 13:58:57;;;;;;;2.38;0.70;;;26.10;96.30;;;;;;4998055;28;20053;-69
2022/06/03 14:01:30;;;;;;;1.83;0.70;;;26.10;96.50;;;;;;5016417;28;20050;-69
2022/06/03 14:04:05;;;;;;;6.28;1.00;;;26.30;96.40;;;;;;5016643;28;20057;-69
2022/06/03 14:06:41;;;;;;;2.45;0.70;;;26.40;96.10;;;;;;5016372;28;20100;-69
2022/06/03 14:09:18;;;;;;;;;;;25.80;96.50;;;;;;4999196;28;20049;-69
2022/06/03 14:11:48;;;;;;;4.38;0.80;;;25.60;96.00;;;;;;5016189;28;19928;-69
2022/06/03 14:14:19;;;;;;;3.13;0.77;;;25.60;96.00;;;;;;5016353;28;20434;-69
2022/06/03 14:17:24;;;;;;;2.13;0.60;;;25.70;96.20;;;;;;4998835;28;20085;-69
2022/06/03 14:20:15;;;;;;;4.40;0.73;;;25.60;96.40;;;;;;4975829;28;20105;-69
2022/06/03 14:23:04;;;;;;;2.42;0.88;;;25.80;96.60;;;;;;4998588;28;20449;-69
2022/06/03 14:25:56;;;;;;;2.70;0.55;;;25.60;96.10;;;;;;5016001;28;20136;-69